createdAt,value
2019-04-21T00:02:32.242Z,28.63
2019-04-21T00:05:16.511Z,29.60
2019-04-21T00:09:32.650Z,29.27
2019-04-21T00:17:19.312Z,30.40
2019-04-21T00:41:09.245Z,26.37
2019-04-21T00:43:32.951Z,26.50
2019-04-21T00:45:57.830Z,26.33
2019-04-21T00:48:45.670Z,25.07
2019-04-21T00:51:31.134Z,24.53
2019-04-21T00:53:57.902Z,24.23
2019-04-21T00:56:25.764Z,23.47
2019-04-21T00:58:56.174Z,24.33
2019-04-21T01:01:21.976Z,24.10
2019-04-21T01:03:57.859Z,23.40
2019-04-21T01:06:22.732Z,23.63
2019-04-21T01:08:55.650Z,23.73
2019-04-21T01:11:28.101Z,26.00
2019-04-21T01:13:59.570Z,25.73
2019-04-21T01:16:37.490Z,27.17
2019-04-21T01:18:54.784Z,25.30
2019-04-21T01:21:14.002Z,24.43
2019-04-21T01:23:40.164Z,25.07
2019-04-21T01:26:23.760Z,25.27
2019-04-21T01:29:01.509Z,24.10
2019-04-21T01:31:30.533Z,24.23
2019-04-21T01:34:03.100Z,23.73
2019-04-21T01:36:33.453Z,23.10
2019-04-21T01:39:09.904Z,24.03
2019-04-21T01:41:41.301Z,23.87
2019-04-21T01:44:01.113Z,23.20
2019-04-21T01:46:33.709Z,24.73
2019-04-21T01:49:05.629Z,23.80
2019-04-21T01:51:59.669Z,24.27
2019-04-21T01:54:22.202Z,25.57
2019-04-21T01:57:00.168Z,24.10
2019-04-21T01:59:26.953Z,23.80
2019-04-21T02:02:08.040Z,24.17
2019-04-21T02:04:41.258Z,25.10
2019-04-21T02:07:13.021Z,24.30
2019-04-21T02:09:38.274Z,24.30
2019-04-21T02:12:08.821Z,25.53
2019-04-21T02:14:46.336Z,25.17
2019-04-21T02:17:15.109Z,23.43
2019-04-21T02:19:37.504Z,25.03
2019-04-21T02:22:11.209Z,25.87
2019-04-21T02:24:49.615Z,24.57
2019-04-21T02:27:19.076Z,24.83
2019-04-21T02:29:48.687Z,25.23
2019-04-21T02:32:26.185Z,24.67
2019-04-21T02:40:05.087Z,24.27
2019-04-21T02:42:40.657Z,24.93
2019-04-21T02:47:48.544Z,24.10
2019-04-21T02:50:09.546Z,24.47
2019-04-21T02:57:41.230Z,22.50
2019-04-21T03:00:16.955Z,23.30
2019-04-21T03:03:09.240Z,23.30
2019-04-21T03:08:27.993Z,22.83
2019-04-21T03:10:54.008Z,22.80
2019-04-21T03:15:59.244Z,22.77
2019-04-21T03:18:32.694Z,23.30
2019-04-21T03:21:05.132Z,21.67
2019-04-21T03:23:32.106Z,22.80
2019-04-21T03:26:00.957Z,23.00
2019-04-21T03:28:30.584Z,22.90
2019-04-21T03:31:18.848Z,22.23
2019-04-21T03:38:43.048Z,21.53
2019-04-21T03:41:08.078Z,20.63
2019-04-21T03:46:01.188Z,21.33
2019-04-21T03:48:35.592Z,20.50
2019-04-21T03:56:44.827Z,21.13
2019-04-21T04:01:44.533Z,19.87
2019-04-21T04:04:30.365Z,19.97
2019-04-21T04:07:55.670Z,19.30
2019-04-21T04:10:06.477Z,18.83
2019-04-21T04:12:29.441Z,19.17
2019-04-21T04:14:55.586Z,19.13
2019-04-21T04:17:26.661Z,18.53
2019-04-21T04:20:04.028Z,19.07
2019-04-21T04:22:41.679Z,18.57
2019-04-21T04:25:04.618Z,17.80
2019-04-21T04:27:46.899Z,18.10
2019-04-21T04:30:10.679Z,17.60
2019-04-21T04:32:38.678Z,17.60
2019-04-21T04:35:26.355Z,16.97
2019-04-21T04:37:36.270Z,17.87
2019-04-21T04:40:14.232Z,17.07
2019-04-21T04:43:09.004Z,18.03
2019-04-21T04:46:12.760Z,16.50
2019-04-21T04:48:07.530Z,17.30
2019-04-21T04:53:12.651Z,16.57
2019-04-21T04:55:38.868Z,16.23
2019-04-21T04:58:11.118Z,16.27
2019-04-21T05:03:18.916Z,16.20
2019-04-21T05:09:03.494Z,15.50
2019-04-21T05:14:04.529Z,15.47
2019-04-21T05:19:10.713Z,14.77
2019-04-21T05:23:51.089Z,13.40
2019-04-21T05:26:14.457Z,14.50
2019-04-21T05:28:44.599Z,13.67
2019-04-21T05:31:47.688Z,12.67
2019-04-21T05:34:18.393Z,12.97
2019-04-21T05:37:07.482Z,12.20
2019-04-21T05:39:39.905Z,11.67
2019-04-21T05:42:06.412Z,12.63
2019-04-21T05:47:26.557Z,11.80
2019-04-21T05:49:56.759Z,11.73
2019-04-21T05:52:23.230Z,11.40
2019-04-21T05:55:06.295Z,11.17
2019-04-21T05:57:32.328Z,11.17
2019-04-21T06:00:07.460Z,11.40
2019-04-21T06:02:53.397Z,10.77
2019-04-21T06:05:13.732Z,9.47
2019-04-21T06:07:38.214Z,10.13
2019-04-21T06:10:20.381Z,9.50
2019-04-21T06:12:40.496Z,10.07
2019-04-21T06:15:07.009Z,9.70
2019-04-21T06:17:44.480Z,8.70
2019-04-21T06:20:10.483Z,8.77
2019-04-21T06:22:38.649Z,6.80
2019-04-21T06:27:49.501Z,9.50
2019-04-21T06:30:10.401Z,6.17
2019-04-21T06:35:48.941Z,6.23
2019-04-21T06:38:10.545Z,6.40
2019-04-21T06:40:43.822Z,5.70
2019-04-21T06:43:24.538Z,5.80
2019-04-21T06:45:45.864Z,5.37
2019-04-21T06:48:15.290Z,5.50
2019-04-21T06:50:46.685Z,5.80
2019-04-21T06:53:14.166Z,5.93
2019-04-21T06:55:37.951Z,5.50
2019-04-21T06:58:13.161Z,5.70
2019-04-21T07:00:40.560Z,5.15
2019-04-21T07:05:52.707Z,5.55
2019-04-21T07:08:31.286Z,5.30
2019-04-21T07:10:52.084Z,5.08
2019-04-21T07:13:15.332Z,5.20
2019-04-21T07:15:49.930Z,5.10
2019-04-21T07:18:19.180Z,4.92
2019-04-21T07:20:56.495Z,4.90
2019-04-21T07:23:25.286Z,4.83
2019-04-21T07:26:01.097Z,4.65
2019-04-21T07:28:25.351Z,4.95
2019-04-21T07:31:03.624Z,4.60
2019-04-21T07:36:21.348Z,5.00
2019-04-21T07:38:45.253Z,4.80
2019-04-21T07:43:44.022Z,4.93
2019-04-21T07:46:10.738Z,4.80
2019-04-21T07:48:50.119Z,4.73
2019-04-21T07:52:06.021Z,4.87
2019-04-21T07:54:35.975Z,4.53
2019-04-21T07:56:55.969Z,4.27
2019-04-21T07:59:52.387Z,4.50
2019-04-21T08:02:00.833Z,4.13
2019-04-21T08:04:52.798Z,4.20
2019-04-21T08:07:09.936Z,4.23
2019-04-21T08:09:40.965Z,4.23
2019-04-21T08:12:04.143Z,4.67
2019-04-21T08:14:42.890Z,4.43
2019-04-21T08:17:16.410Z,4.13
2019-04-21T08:19:44.602Z,4.20
2019-04-21T08:22:15.778Z,4.30
2019-04-21T08:24:57.743Z,4.50
2019-04-21T08:27:28.288Z,4.43
2019-04-21T08:29:58.205Z,4.57
2019-04-21T08:32:39.133Z,4.47
2019-04-21T08:35:25.361Z,4.30
2019-04-21T08:37:31.293Z,3.80
2019-04-21T08:42:30.524Z,3.93
2019-04-21T08:45:07.675Z,3.53
2019-04-21T08:47:42.632Z,3.33
2019-04-21T08:50:31.003Z,3.40
2019-04-21T08:53:04.063Z,3.37
2019-04-21T08:55:49.240Z,3.60
2019-04-21T09:01:50.364Z,2.90
2019-04-21T09:04:21.229Z,3.70
2019-04-21T09:09:23.651Z,3.50
2019-04-21T09:11:54.309Z,3.50
2019-04-21T09:14:26.976Z,3.27
2019-04-21T09:16:53.711Z,3.07
2019-04-21T09:19:38.647Z,3.23
2019-04-21T09:22:00.614Z,3.50
2019-04-21T09:24:27.619Z,3.60
2019-04-21T09:26:57.934Z,3.47
2019-04-21T09:29:25.671Z,3.93
2019-04-21T09:31:48.014Z,4.10
2019-04-21T09:37:53.402Z,3.73
2019-04-21T09:40:33.943Z,3.90
2019-04-21T09:43:02.622Z,3.70
2019-04-21T09:45:28.568Z,3.93
2019-04-21T09:48:04.543Z,3.80
2019-04-21T09:50:29.545Z,4.03
2019-04-21T09:53:10.269Z,3.07
2019-04-21T09:55:36.430Z,3.63
2019-04-21T09:58:12.646Z,3.60
2019-04-21T10:00:43.403Z,3.20
2019-04-21T10:03:15.680Z,3.50
2019-04-21T10:05:45.132Z,2.65
2019-04-21T10:08:58.581Z,2.63
2019-04-21T10:11:33.808Z,2.60
2019-04-21T10:14:03.221Z,3.20
2019-04-21T10:16:38.557Z,3.10
2019-04-21T10:19:08.783Z,3.00
2019-04-21T10:21:38.108Z,3.08
2019-04-21T10:24:08.235Z,3.30
2019-04-21T10:26:37.659Z,3.03
2019-04-21T10:29:14.767Z,2.80
2019-04-21T10:31:38.585Z,3.07
2019-04-21T10:34:25.293Z,3.35
2019-04-21T10:36:55.306Z,3.37
2019-04-21T10:39:24.495Z,3.10
2019-04-21T10:41:53.411Z,3.45
2019-04-21T10:44:23.169Z,2.80
2019-04-21T10:46:54.507Z,2.90
2019-04-21T10:49:24.498Z,3.20
2019-04-21T10:51:54.914Z,3.08
2019-04-21T10:54:24.130Z,3.20
2019-04-21T10:57:40.777Z,3.47
2019-04-21T11:03:50.831Z,3.20
2019-04-21T11:06:48.574Z,3.30
2019-04-21T11:12:50.768Z,3.42
2019-04-21T11:18:42.116Z,3.00
2019-04-21T11:21:11.428Z,2.70
2019-04-21T11:23:40.571Z,3.35
2019-04-21T11:26:10.069Z,3.10
2019-04-21T11:28:38.998Z,2.50
2019-04-21T11:31:09.036Z,2.42
2019-04-21T11:33:39.466Z,2.30
2019-04-21T11:36:09.095Z,2.17
2019-04-21T11:38:57.121Z,2.20
2019-04-21T11:41:27.869Z,2.00
2019-04-21T11:43:57.376Z,2.20
2019-04-21T11:46:26.802Z,2.35
2019-04-21T11:48:55.990Z,2.02
2019-04-21T11:51:25.003Z,2.10
2019-04-21T11:53:54.979Z,1.87
2019-04-21T11:56:25.096Z,2.10
2019-04-21T11:58:54.160Z,1.92
2019-04-21T12:01:23.484Z,2.27
2019-04-21T12:03:53.760Z,2.42
2019-04-21T12:06:40.966Z,2.67
2019-04-21T12:09:09.526Z,2.33
2019-04-21T12:11:39.026Z,2.35
2019-04-21T12:14:08.090Z,2.15
2019-04-21T12:16:37.232Z,2.27
2019-04-21T12:19:07.190Z,2.10
2019-04-21T12:22:23.147Z,2.20
2019-04-21T12:24:38.130Z,2.15
2019-04-21T12:27:09.730Z,2.25
2019-04-21T12:29:39.927Z,1.90
2019-04-21T12:32:26.386Z,2.10
2019-04-21T12:34:55.730Z,2.30
2019-04-21T12:37:24.756Z,2.20
2019-04-21T12:39:54.778Z,2.40
2019-04-21T12:42:38.738Z,2.27
2019-04-21T12:45:07.589Z,2.22
2019-04-21T12:47:37.804Z,2.15
2019-04-21T12:50:08.773Z,2.10
2019-04-21T12:52:37.934Z,2.40
2019-04-21T12:55:07.278Z,2.35
2019-04-21T12:57:37.236Z,2.12
2019-04-21T13:00:11.107Z,2.10
2019-04-21T13:02:40.110Z,2.60
2019-04-21T13:05:21.953Z,2.22
2019-04-21T13:07:51.298Z,2.47
2019-04-21T13:10:22.237Z,2.30
2019-04-21T13:12:52.152Z,2.12
2019-04-21T13:15:21.943Z,2.20
2019-04-21T13:17:52.225Z,2.25
2019-04-21T13:20:23.195Z,2.40
2019-04-21T13:22:54.041Z,2.40
2019-04-21T13:25:23.701Z,2.15
2019-04-21T13:28:07.001Z,2.20
2019-04-21T13:30:36.412Z,2.10
2019-04-21T13:33:07.034Z,2.25
2019-04-21T13:35:37.186Z,2.25
2019-04-21T13:38:18.862Z,2.20
2019-04-21T13:46:13.664Z,2.30
2019-04-21T13:48:44.402Z,2.05
2019-04-21T13:51:13.570Z,2.10
2019-04-21T13:54:03.976Z,2.10
2019-04-21T13:57:30.374Z,2.05
2019-04-21T13:59:59.616Z,2.58
2019-04-21T14:02:28.976Z,2.17
2019-04-21T14:04:59.180Z,2.10
2019-04-21T14:07:41.990Z,2.30
2019-04-21T14:10:13.789Z,2.15
2019-04-21T14:12:42.517Z,2.10
2019-04-21T14:15:12.554Z,2.35
2019-04-21T14:17:42.543Z,1.92
2019-04-21T14:20:13.210Z,2.00
2019-04-21T14:22:42.293Z,2.35
2019-04-21T14:25:12.139Z,1.90
2019-04-21T14:27:41.835Z,2.10
2019-04-21T14:30:30.420Z,1.85
2019-04-21T14:33:00.321Z,2.22
2019-04-21T14:35:29.491Z,2.22
2019-04-21T14:37:58.524Z,2.08
2019-04-21T14:40:30.920Z,2.05
2019-04-21T14:42:58.473Z,2.37
2019-04-21T14:45:36.938Z,2.20
2019-04-21T14:48:27.278Z,2.10
2019-04-21T14:51:14.241Z,2.12
2019-04-21T14:54:03.772Z,2.30
2019-04-21T14:56:53.156Z,2.20
2019-04-21T14:59:24.760Z,2.10
2019-04-21T15:01:54.017Z,2.55
2019-04-21T15:04:24.139Z,2.25
2019-04-21T15:06:55.136Z,2.65
2019-04-21T15:09:25.300Z,2.20
2019-04-21T15:11:54.426Z,2.30
2019-04-21T15:14:24.093Z,2.30
2019-04-21T15:17:12.448Z,2.22
2019-04-21T15:19:49.284Z,2.20
2019-04-21T15:22:14.398Z,2.58
2019-04-21T15:24:44.511Z,2.60
2019-04-21T15:27:14.685Z,2.30
2019-04-21T15:29:44.866Z,3.02
2019-04-21T15:32:14.895Z,2.40
2019-04-21T15:34:44.419Z,2.10
2019-04-21T15:37:13.703Z,2.35
2019-04-21T15:40:14.940Z,2.55
2019-04-21T15:42:33.015Z,3.00
2019-04-21T15:45:02.913Z,2.83
2019-04-21T15:47:32.136Z,2.42
2019-04-21T15:50:07.391Z,3.00
2019-04-21T15:52:33.759Z,2.90
2019-04-21T15:55:06.673Z,2.17
2019-04-21T15:57:54.346Z,2.40
2019-04-21T16:00:49.859Z,2.35
2019-04-21T16:06:55.369Z,2.90
2019-04-21T16:09:27.081Z,2.55
2019-04-21T16:11:55.787Z,2.40
2019-04-21T16:14:42.798Z,2.35
2019-04-21T16:17:11.951Z,2.30
2019-04-21T16:19:43.860Z,2.17
2019-04-21T16:22:12.985Z,2.37
2019-04-21T16:24:42.124Z,2.02
2019-04-21T16:27:12.695Z,2.30
2019-04-21T16:29:43.872Z,2.30
2019-04-21T16:32:14.693Z,2.30
2019-04-21T16:34:50.730Z,2.77
2019-04-21T16:37:33.622Z,2.02
2019-04-21T16:40:03.432Z,2.10
2019-04-21T16:43:10.094Z,2.22
2019-04-21T16:45:57.335Z,2.25
2019-04-21T16:48:27.369Z,3.17
2019-04-21T16:50:57.416Z,3.00
2019-04-21T16:53:43.936Z,4.12
2019-04-21T16:56:41.765Z,4.72
2019-04-21T16:59:28.693Z,4.72
2019-04-21T17:02:00.634Z,4.87
2019-04-21T17:04:30.676Z,4.90
2019-04-21T17:07:00.882Z,4.55
2019-04-21T17:09:30.613Z,5.20
2019-04-21T17:12:26.783Z,4.70
2019-04-21T17:15:10.905Z,5.00
2019-04-21T17:17:51.359Z,5.22
2019-04-21T17:20:11.880Z,4.78
2019-04-21T17:22:27.947Z,5.10
2019-04-21T17:24:58.245Z,4.97
2019-04-21T17:27:27.242Z,4.80
2019-04-21T17:30:16.616Z,4.78
2019-04-21T17:32:49.758Z,4.87
2019-04-21T17:35:19.459Z,5.05
2019-04-21T17:37:49.930Z,4.75
2019-04-21T17:40:24.097Z,4.65
2019-04-21T17:43:01.327Z,4.33
2019-04-21T17:45:23.980Z,4.42
2019-04-21T17:48:16.167Z,4.72
2019-04-21T17:51:19.251Z,4.40
2019-04-21T17:54:13.674Z,3.95
2019-04-21T17:57:04.465Z,4.33
2019-04-21T17:59:41.163Z,4.55
2019-04-21T18:02:02.418Z,4.37
2019-04-21T18:04:30.635Z,4.67
2019-04-21T18:07:05.104Z,4.97
2019-04-21T18:12:28.022Z,4.72
2019-04-21T18:14:56.527Z,4.20
2019-04-21T18:17:18.498Z,4.12
2019-04-21T18:19:51.309Z,4.60
2019-04-21T18:22:54.609Z,4.50
2019-04-21T18:25:37.497Z,3.98
2019-04-21T18:27:56.408Z,4.17
2019-04-21T18:30:49.109Z,4.25
2019-04-21T18:33:27.099Z,4.12
2019-04-21T18:36:21.283Z,4.37
2019-04-21T18:39:09.752Z,3.95
2019-04-21T18:41:28.761Z,4.70
2019-04-21T18:44:30.256Z,4.37
2019-04-21T18:47:16.661Z,4.40
2019-04-21T18:56:20.836Z,4.87
2019-04-21T18:58:51.068Z,5.07
2019-04-21T19:01:27.836Z,5.10
2019-04-21T19:03:58.283Z,5.10
2019-04-21T19:06:47.016Z,5.10
2019-04-21T19:13:28.526Z,5.03
2019-04-21T19:15:39.981Z,5.20
2019-04-21T19:20:42.959Z,5.13
2019-04-21T19:23:11.590Z,5.20
2019-04-21T19:25:59.381Z,5.00
2019-04-21T19:28:17.985Z,4.87
2019-04-21T19:31:11.542Z,4.60
2019-04-21T19:33:33.323Z,4.87
2019-04-21T19:35:59.620Z,5.23
2019-04-21T19:38:44.440Z,5.10
2019-04-21T19:41:20.733Z,5.17
2019-04-21T19:43:53.675Z,5.17
2019-04-21T19:46:27.605Z,5.13
2019-04-21T19:49:10.934Z,4.70
2019-04-21T19:51:26.381Z,5.03
2019-04-21T19:53:56.106Z,4.97
2019-04-21T19:56:18.647Z,5.10
2019-04-21T19:59:48.542Z,5.00
2019-04-21T20:02:16.506Z,4.67
2019-04-21T20:05:07.042Z,4.93
2019-04-21T20:07:48.267Z,5.17
2019-04-21T20:10:27.308Z,4.83
2019-04-21T20:12:59.578Z,5.00
2019-04-21T20:15:37.417Z,4.83
2019-04-21T20:18:00.207Z,4.70
2019-04-21T20:20:17.125Z,5.00
2019-04-21T20:26:30.463Z,5.03
2019-04-21T20:29:10.983Z,4.97
2019-04-21T20:31:48.699Z,4.70
2019-04-21T20:34:30.556Z,4.77
2019-04-21T20:37:00.009Z,4.50
2019-04-21T20:39:19.044Z,5.13
2019-04-21T20:41:57.544Z,4.63
2019-04-21T20:44:32.897Z,5.10
2019-04-21T20:46:59.888Z,5.10
2019-04-21T20:49:28.543Z,5.00
2019-04-21T20:52:14.281Z,4.50
2019-04-21T20:54:37.046Z,4.60
2019-04-21T20:57:06.032Z,4.80
2019-04-21T20:59:34.218Z,4.40
2019-04-21T21:02:05.598Z,4.10
2019-04-21T21:04:31.751Z,4.50
2019-04-21T21:07:30.550Z,4.60
2019-04-21T21:09:49.996Z,4.50
2019-04-21T21:12:33.790Z,4.70
2019-04-21T21:14:43.867Z,4.83
2019-04-21T21:17:37.876Z,4.33
2019-04-21T21:19:52.858Z,4.77
2019-04-21T21:22:14.864Z,3.77
2019-04-21T21:24:53.416Z,4.33
2019-04-21T21:27:24.130Z,4.33
2019-04-21T21:29:56.696Z,4.40
2019-04-21T21:32:27.530Z,4.30
2019-04-21T21:35:01.359Z,4.67
2019-04-21T21:37:32.338Z,4.40
2019-04-21T21:40:07.200Z,4.20
2019-04-21T21:42:22.017Z,4.57
2019-04-21T21:44:50.468Z,4.00
2019-04-21T21:47:31.951Z,4.70
2019-04-21T21:49:55.443Z,3.67
2019-04-21T21:52:32.728Z,4.03
2019-04-21T21:54:49.770Z,4.77
2019-04-21T21:57:20.616Z,4.80
2019-04-21T21:59:51.726Z,4.60
2019-04-21T22:02:31.934Z,4.97
2019-04-21T22:05:01.424Z,5.10
2019-04-21T22:07:28.035Z,5.00
2019-04-21T22:09:54.759Z,5.40
2019-04-21T22:12:23.911Z,5.10
2019-04-21T22:14:55.457Z,5.03
2019-04-21T22:17:41.589Z,5.10
2019-04-21T22:20:17.212Z,5.40
2019-04-21T22:22:39.002Z,5.33
2019-04-21T22:25:06.972Z,5.50
2019-04-21T22:27:30.781Z,5.70
2019-04-21T22:30:03.927Z,5.63
2019-04-21T22:32:34.547Z,5.83
2019-04-21T22:35:08.783Z,6.20
2019-04-21T22:37:43.908Z,6.03
2019-04-21T22:40:19.282Z,6.40
2019-04-21T22:42:47.451Z,6.23
2019-04-21T22:45:09.266Z,5.73
2019-04-21T22:47:41.246Z,5.67
2019-04-21T22:50:18.719Z,5.27
2019-04-21T22:52:53.338Z,5.40
2019-04-21T22:55:22.662Z,5.47
2019-04-21T22:57:53.258Z,5.07
2019-04-21T23:00:23.924Z,4.90
2019-04-21T23:03:01.314Z,4.83
2019-04-21T23:05:30.258Z,4.40
2019-04-21T23:08:01.455Z,4.13
2019-04-21T23:10:27.437Z,4.60
2019-04-21T23:12:59.625Z,4.70
2019-04-21T23:15:37.501Z,4.40
2019-04-21T23:18:22.133Z,4.10
2019-04-21T23:20:47.970Z,4.40
2019-04-21T23:23:21.023Z,3.87
2019-04-21T23:25:51.689Z,4.10
2019-04-21T23:28:16.099Z,3.80
2019-04-21T23:30:54.694Z,4.17
2019-04-21T23:33:10.879Z,3.70
2019-04-21T23:35:41.820Z,3.90
2019-04-21T23:38:10.973Z,3.70
2019-04-21T23:40:49.540Z,4.03
2019-04-21T23:43:17.269Z,3.73
2019-04-21T23:45:45.334Z,3.80
2019-04-21T23:48:28.834Z,4.00
2019-04-21T23:50:55.082Z,3.60
2019-04-21T23:53:19.564Z,3.70
2019-04-21T23:55:49.485Z,4.00
2019-04-21T23:58:25.235Z,3.87
